Terminal Aerodrome Forecast
Issued by NWS Los Angeles, CA

Home | Current Version | Previous Version | Text Only | Print | Product List | Glossary On
Versions: 1 2 3 4 5 6 7 8 9 10 11 12 13 14 15 16 17 18 19 20 21 22
000
FTUS46 KLOX 230803 AAC
TAFSMX
TAF AMD
KSMX 230803Z 2308/2406 VRB03KT 5SM BR OVC007
     FM231100 VRB03KT 1 1/2SM BR OVC003
     FM231300 00000KT 1/4SM FG OVC001
     FM231500 VRB03KT 3SM BR OVC003
     FM231700 31006KT 5SM BR BKN007
     FM231900 30011KT P6SM SKC
     FM240230 30006KT 6SM BR BKN007=

USA.gov is the U.S. government's official web portal to all federal, state and local government web resources and services.